Clayhatchee, Alabama
Current Conditions -  °F | °C
As of 1:58 PM on Thursday 23 Oct 2014 (Local Time) from KOZR Reporting Station
Clear Clear  
Wind Chill: 22°   Ceiling: Unl
Heat Index: 22°   Visibility: 10mi
Dew Point:   Wind: 8mph
Humidity: 36%   Direction: 60°ENE
Pressure: 30.04"   Gusts: NA
Location:  31.2347°N, 85.7586°W
Report Text: KOZR 231858Z AUTO 06007KT 10SM CLR 22/07 A3004 RMK AO2 SLP174 T02230065
Loading
Personal Weather Stations






























Interactive Weather Map
Tropical Storm Tracking
New forecast layout! Learn more

10-Day Weather Forecast

Advertisements
Track Severe Weather on mobile